This is the latest recevied weather packets stored in our database for station/object OM8AGG-15. If no packets are shown the sender has not sent any weather packets the latest 10 day(s).
| Time | Temp. | Humidity | Pressure | Rain* | Wind** | Luminosity | Snow |
|---|---|---|---|---|---|---|---|
| 1778016721 | 17.22° C | 33% | 1010 hPa | - | - | - | - |
| 1778015821 | 17.22° C | 32% | 1010 hPa | - | - | - | - |
| 1778014921 | 18.33° C | 31% | 1010 hPa | - | - | - | - |
| 1778014021 | 18.33° C | 30% | 1009.9 hPa | - | - | - | - |
| 1778013120 | 18.33° C | 30% | 1009.9 hPa | - | - | - | - |
| 1778012220 | 17.78° C | 32% | 1009.9 hPa | - | - | - | - |
| 1778011320 | 18.33° C | 30% | 1009.8 hPa | - | - | - | - |
| 1778010420 | 18.33° C | 31% | 1009.8 hPa | - | - | - | - |
| 1778009520 | 17.78° C | 31% | 1009.6 hPa | - | - | - | - |
| 1778008620 | 18.89° C | 28% | 1009.6 hPa | - | - | - | - |
| 1778007720 | 19.44° C | 28% | 1009.6 hPa | - | - | - | - |
| 1778006820 | 20° C | 28% | 1009.4 hPa | - | - | - | - |
| 1778005919 | 20° C | 28% | 1009.5 hPa | - | - | - | - |
| 1778005019 | 20.56° C | 27% | 1009.5 hPa | - | - | - | - |
| 1778004119 | 21.11° C | 26% | 1009.3 hPa | - | - | - | - |
| 1778003219 | 22.22° C | 23% | 1009.4 hPa | - | - | - | - |
| 1778002319 | 22.78° C | 22% | 1009.4 hPa | - | - | - | - |
| 1778001419 | 23.33° C | 22% | 1009.4 hPa | - | - | - | - |
| 1778000519 | 23.33° C | 21% | 1009.5 hPa | - | - | - | - |
| 1777999619 | 23.89° C | 20% | 1009.6 hPa | - | - | - | - |
| 1777998718 | 25° C | 20% | 1009.6 hPa | - | - | - | - |
| 1777997818 | 24.44° C | 19% | 1009.8 hPa | - | - | - | - |
| 1777996918 | 25° C | 19% | 1009.9 hPa | - | - | - | - |
| 1777996018 | 25° C | 18% | 1010.1 hPa | - | - | - | - |
| 1777995118 | 25° C | 18% | 1010 hPa | - | - | - | - |
* Rain since midnight (hover to see other rain measurements)
** Current wind speed in m/s (hover to see current wind gust speed)